createdAt,value
2022-08-03T00:01:52.076Z,2.58
2022-08-03T00:04:18.565Z,2.55
2022-08-03T00:06:57.480Z,2.95
2022-08-03T00:09:23.848Z,2.55
2022-08-03T00:11:50.221Z,3.03
2022-08-03T00:14:17.729Z,3.00
2022-08-03T00:16:44.071Z,3.28
2022-08-03T00:19:10.446Z,3.15
2022-08-03T00:21:37.353Z,2.95
2022-08-03T00:24:03.968Z,2.72
2022-08-03T00:26:31.634Z,2.78
2022-08-03T00:28:58.051Z,2.50
2022-08-03T00:31:40.093Z,2.70
2022-08-03T00:34:10.900Z,2.40
2022-08-03T00:36:38.886Z,2.72
2022-08-03T00:39:05.282Z,2.65
2022-08-03T00:41:31.643Z,2.50
2022-08-03T00:43:58.031Z,2.55
2022-08-03T00:46:24.374Z,2.55
2022-08-03T00:48:51.455Z,2.58
2022-08-03T00:51:19.791Z,3.03
2022-08-03T00:53:46.336Z,2.63
2022-08-03T00:56:16.726Z,2.95
2022-08-03T00:58:46.973Z,3.00
2022-08-03T01:01:15.348Z,3.30
2022-08-03T01:03:41.944Z,3.20
2022-08-03T01:06:25.344Z,2.83
2022-08-03T01:09:00.918Z,3.10
2022-08-03T01:12:01.051Z,2.90
2022-08-03T01:14:32.426Z,3.20
2022-08-03T01:17:09.730Z,3.08
2022-08-03T01:19:51.011Z,3.20
2022-08-03T01:22:38.714Z,2.90
2022-08-03T01:25:36.311Z,3.17
2022-08-03T01:28:23.471Z,3.00
2022-08-03T01:30:53.216Z,3.20
2022-08-03T01:33:24.441Z,3.10
2022-08-03T01:35:57.203Z,2.72
2022-08-03T01:38:34.139Z,2.90
2022-08-03T01:41:10.775Z,2.83
2022-08-03T01:44:27.005Z,2.72
2022-08-03T01:46:28.521Z,2.90
2022-08-03T01:48:56.066Z,3.08
2022-08-03T01:51:22.745Z,3.25
2022-08-03T01:53:51.137Z,3.35
2022-08-03T01:56:20.054Z,3.53
2022-08-03T01:58:49.652Z,3.15
2022-08-03T02:01:18.676Z,3.00
2022-08-03T02:03:59.930Z,3.30
2022-08-03T02:07:00.761Z,3.00
2022-08-03T02:09:15.206Z,2.83
2022-08-03T02:11:43.776Z,3.22
2022-08-03T02:14:10.792Z,3.65
2022-08-03T02:16:37.343Z,3.05
2022-08-03T02:19:07.182Z,3.25
2022-08-03T02:21:57.250Z,3.58
2022-08-03T02:24:22.512Z,3.03
2022-08-03T02:26:51.504Z,3.05
2022-08-03T02:29:22.174Z,3.30
2022-08-03T02:32:10.389Z,2.92
2022-08-03T02:34:38.310Z,3.38
2022-08-03T02:37:06.904Z,3.60
2022-08-03T02:39:35.553Z,3.28
2022-08-03T02:42:03.268Z,3.38
2022-08-03T02:44:32.745Z,3.65
2022-08-03T02:47:04.135Z,3.60
2022-08-03T02:49:49.561Z,3.22
2022-08-03T02:52:21.302Z,3.15
2022-08-03T02:54:50.957Z,3.50
2022-08-03T02:57:19.305Z,3.40
2022-08-03T02:59:46.347Z,3.20
2022-08-03T03:02:15.657Z,3.72
2022-08-03T03:04:45.085Z,3.35
2022-08-03T03:07:31.325Z,3.58
2022-08-03T03:10:08.284Z,3.47
2022-08-03T03:12:36.989Z,4.00
2022-08-03T03:15:06.455Z,3.42
2022-08-03T03:17:34.766Z,3.33
2022-08-03T03:20:02.585Z,3.55
2022-08-03T03:22:33.423Z,3.33
2022-08-03T03:25:00.544Z,3.70
2022-08-03T03:27:27.231Z,3.60
2022-08-03T03:29:54.016Z,3.28
2022-08-03T03:32:20.477Z,3.70
2022-08-03T03:34:47.893Z,3.60
2022-08-03T03:37:14.262Z,3.50
2022-08-03T03:39:40.660Z,3.50
2022-08-03T03:42:07.270Z,3.50
2022-08-03T03:44:33.732Z,3.55
2022-08-03T03:47:00.253Z,3.63
2022-08-03T03:49:26.898Z,3.50
2022-08-03T03:51:54.935Z,3.40
2022-08-03T03:54:21.573Z,3.40
2022-08-03T03:56:48.144Z,3.33
2022-08-03T03:59:14.617Z,3.70
2022-08-03T04:01:41.057Z,3.60
2022-08-03T04:04:26.033Z,3.85
2022-08-03T04:07:10.710Z,3.53
2022-08-03T04:09:59.231Z,3.83
2022-08-03T04:12:37.693Z,3.40
2022-08-03T04:15:20.682Z,3.65
2022-08-03T04:17:50.354Z,3.90
2022-08-03T04:20:20.492Z,3.92
2022-08-03T04:22:51.197Z,3.42
2022-08-03T04:25:19.395Z,4.18
2022-08-03T04:28:19.707Z,3.67
2022-08-03T04:30:38.618Z,3.35
2022-08-03T04:33:06.487Z,3.67
2022-08-03T04:36:01.258Z,3.60
2022-08-03T04:38:24.745Z,3.70
2022-08-03T04:40:52.829Z,4.13
2022-08-03T04:43:21.109Z,4.40
2022-08-03T04:45:49.429Z,3.55
2022-08-03T04:48:16.112Z,3.40
2022-08-03T04:50:43.156Z,3.83
2022-08-03T04:53:09.779Z,3.38
2022-08-03T04:55:36.429Z,3.50
2022-08-03T04:58:03.865Z,3.38
2022-08-03T05:00:30.670Z,3.10
2022-08-03T05:02:57.470Z,3.35
2022-08-03T05:05:24.394Z,3.47
2022-08-03T05:07:51.176Z,3.20
2022-08-03T05:10:17.843Z,3.05
2022-08-03T05:12:45.723Z,3.15
2022-08-03T05:15:12.854Z,3.67
2022-08-03T05:17:39.341Z,3.60
2022-08-03T05:20:06.501Z,3.50
2022-08-03T05:22:32.966Z,3.08
2022-08-03T05:25:01.185Z,3.40
2022-08-03T05:27:27.565Z,3.70
2022-08-03T05:29:54.033Z,3.30
2022-08-03T05:32:20.728Z,3.20
2022-08-03T05:34:47.288Z,3.33
2022-08-03T05:37:13.678Z,3.20
2022-08-03T05:39:40.140Z,3.00
2022-08-03T05:42:06.576Z,3.40
2022-08-03T05:44:32.956Z,3.60
2022-08-03T05:46:59.865Z,4.07
2022-08-03T05:49:26.364Z,3.28
2022-08-03T05:52:00.142Z,3.92
2022-08-03T05:54:57.257Z,3.97
2022-08-03T05:57:25.470Z,3.67
2022-08-03T05:59:54.658Z,3.85
2022-08-03T06:02:26.455Z,3.72
2022-08-03T06:04:52.874Z,3.60
2022-08-03T06:07:19.232Z,3.22
2022-08-03T06:10:37.354Z,2.90
2022-08-03T06:12:32.083Z,3.70
2022-08-03T06:14:58.488Z,3.75
2022-08-03T06:17:24.868Z,3.22
2022-08-03T06:19:53.745Z,3.38
2022-08-03T06:22:20.628Z,3.10
2022-08-03T06:24:53.358Z,2.97
2022-08-03T06:27:20.436Z,3.45
2022-08-03T06:29:57.779Z,2.97
2022-08-03T06:32:24.138Z,2.85
2022-08-03T06:34:51.321Z,2.60
2022-08-03T06:37:18.434Z,3.10
2022-08-03T06:39:44.772Z,3.13
2022-08-03T06:42:13.147Z,2.60
2022-08-03T06:44:39.496Z,3.20
2022-08-03T06:47:05.900Z,2.95
2022-08-03T06:49:32.337Z,3.13
2022-08-03T06:52:04.631Z,2.67
2022-08-03T06:54:33.516Z,2.50
2022-08-03T06:56:59.979Z,3.25
2022-08-03T07:00:07.694Z,2.42
2022-08-03T07:02:19.315Z,2.45
2022-08-03T07:04:48.726Z,2.47
2022-08-03T07:07:15.223Z,2.70
2022-08-03T07:09:41.788Z,2.78
2022-08-03T07:12:08.529Z,2.50
2022-08-03T07:14:35.002Z,2.80
2022-08-03T07:17:01.411Z,2.28
2022-08-03T07:19:31.270Z,2.63
2022-08-03T07:21:58.925Z,2.45
2022-08-03T07:24:29.101Z,2.40
2022-08-03T07:26:55.515Z,2.58
2022-08-03T07:29:21.845Z,2.42
2022-08-03T07:31:48.234Z,2.80
2022-08-03T07:34:14.856Z,3.38
2022-08-03T07:36:41.240Z,2.67
2022-08-03T07:39:16.537Z,2.40
2022-08-03T07:41:44.961Z,2.65
2022-08-03T07:44:11.448Z,2.30
2022-08-03T07:46:37.884Z,2.38
2022-08-03T07:49:04.515Z,2.30
2022-08-03T07:51:30.933Z,2.40
2022-08-03T07:53:57.708Z,3.47
2022-08-03T07:56:28.018Z,2.33
2022-08-03T07:58:54.892Z,2.47
2022-08-03T08:01:21.903Z,2.40
2022-08-03T08:03:49.924Z,2.17
2022-08-03T08:06:21.398Z,2.33
2022-08-03T08:08:48.236Z,2.58
2022-08-03T08:11:14.907Z,2.17
2022-08-03T08:13:41.503Z,2.00
2022-08-03T08:16:07.885Z,2.00
2022-08-03T08:18:34.467Z,2.20
2022-08-03T08:21:03.091Z,2.20
2022-08-03T08:23:44.149Z,2.13
2022-08-03T08:26:11.677Z,2.08
2022-08-03T08:28:38.145Z,1.88
2022-08-03T08:31:04.791Z,2.35
2022-08-03T08:34:02.576Z,2.05
2022-08-03T08:36:17.764Z,1.83
2022-08-03T08:38:45.284Z,1.60
2022-08-03T08:41:13.786Z,1.88
2022-08-03T08:43:40.720Z,2.08
2022-08-03T08:46:08.420Z,1.73
2022-08-03T08:48:39.524Z,2.00
2022-08-03T08:51:06.579Z,2.42
2022-08-03T08:53:37.293Z,2.00
2022-08-03T08:56:05.294Z,2.30
2022-08-03T08:58:37.627Z,1.98
2022-08-03T09:01:05.256Z,1.67
2022-08-03T09:03:34.085Z,1.90
2022-08-03T09:06:02.099Z,1.90
2022-08-03T09:08:29.991Z,1.80
2022-08-03T09:10:56.477Z,1.98
2022-08-03T09:13:22.889Z,1.88
2022-08-03T09:16:08.389Z,2.03
2022-08-03T09:18:34.784Z,2.15
2022-08-03T09:21:33.484Z,1.92
2022-08-03T09:24:04.302Z,1.70
2022-08-03T09:26:36.491Z,1.88
2022-08-03T09:29:13.863Z,1.50
2022-08-03T09:31:46.484Z,1.90
2022-08-03T09:34:16.317Z,1.63
2022-08-03T09:36:50.485Z,1.70
2022-08-03T09:39:18.116Z,1.60
2022-08-03T09:42:04.991Z,1.67
2022-08-03T09:44:39.077Z,1.83
2022-08-03T09:47:06.241Z,1.33
2022-08-03T09:49:32.917Z,1.25
2022-08-03T09:52:33.681Z,1.40
2022-08-03T09:54:59.681Z,1.60
2022-08-03T09:57:27.142Z,1.20
2022-08-03T10:00:04.468Z,1.42
2022-08-03T10:02:32.751Z,1.40
2022-08-03T10:04:59.094Z,1.60
2022-08-03T10:07:25.527Z,1.42
2022-08-03T10:10:30.109Z,1.65
2022-08-03T10:12:49.007Z,1.48
2022-08-03T10:16:22.448Z,1.75
2022-08-03T10:18:02.181Z,1.60
2022-08-03T10:20:28.612Z,1.60
2022-08-03T10:22:55.871Z,1.60
2022-08-03T10:25:22.896Z,1.50
2022-08-03T10:28:04.385Z,1.40
2022-08-03T10:30:32.904Z,1.60
2022-08-03T10:33:51.531Z,1.63
2022-08-03T10:36:01.725Z,1.70
2022-08-03T10:38:43.209Z,1.40
2022-08-03T10:41:10.875Z,1.58
2022-08-03T10:43:52.956Z,1.30
2022-08-03T10:46:21.234Z,1.55
2022-08-03T10:48:49.744Z,1.45
2022-08-03T10:51:17.174Z,1.60
2022-08-03T10:53:50.158Z,1.40
2022-08-03T10:56:52.510Z,1.60
2022-08-03T10:59:45.895Z,1.60
2022-08-03T11:02:14.185Z,1.40
2022-08-03T11:04:41.441Z,1.45
2022-08-03T11:07:23.454Z,1.55
2022-08-03T11:09:55.690Z,1.52
2022-08-03T11:12:33.655Z,1.30
2022-08-03T11:15:04.775Z,1.70
2022-08-03T11:17:32.684Z,1.30
2022-08-03T11:19:59.453Z,2.00
2022-08-03T11:22:46.085Z,1.50
2022-08-03T11:25:53.078Z,1.65
2022-08-03T11:28:29.334Z,1.48
2022-08-03T11:30:57.200Z,1.55
2022-08-03T11:33:30.799Z,1.50
2022-08-03T11:36:01.949Z,1.38
2022-08-03T11:38:28.374Z,1.50
2022-08-03T11:40:55.087Z,1.52
2022-08-03T11:43:31.634Z,1.50
2022-08-03T11:45:59.530Z,1.40
2022-08-03T11:48:39.417Z,1.50
2022-08-03T11:51:08.089Z,1.50
2022-08-03T11:53:42.002Z,1.50
2022-08-03T11:56:12.694Z,1.58
2022-08-03T11:59:10.817Z,1.70
2022-08-03T12:01:37.444Z,1.70
2022-08-03T12:04:05.669Z,1.50
2022-08-03T12:06:52.117Z,1.58
2022-08-03T12:09:18.497Z,1.60
2022-08-03T12:11:50.874Z,1.60
2022-08-03T12:14:48.638Z,1.50
2022-08-03T12:17:14.599Z,1.40
2022-08-03T12:19:44.617Z,1.45
2022-08-03T12:22:10.973Z,1.58
2022-08-03T12:24:46.830Z,1.60
2022-08-03T12:27:23.552Z,1.55
2022-08-03T12:29:58.730Z,1.70
2022-08-03T12:32:26.399Z,1.58
2022-08-03T12:34:52.981Z,1.65
2022-08-03T12:37:23.603Z,1.60
2022-08-03T12:40:02.854Z,1.40
2022-08-03T12:42:36.243Z,1.50
2022-08-03T12:45:19.495Z,1.33
2022-08-03T12:47:57.164Z,1.75
2022-08-03T12:50:31.794Z,1.48
2022-08-03T12:52:59.710Z,1.40
2022-08-03T12:55:56.734Z,1.63
2022-08-03T12:58:34.362Z,1.20
2022-08-03T13:01:10.011Z,1.45
2022-08-03T13:03:42.362Z,1.20
2022-08-03T13:06:18.648Z,1.30
2022-08-03T13:08:47.778Z,1.10
2022-08-03T13:11:55.854Z,1.27
2022-08-03T13:14:13.526Z,1.10
2022-08-03T13:16:45.863Z,1.20
2022-08-03T13:19:15.610Z,1.38
2022-08-03T13:22:01.865Z,1.65
2022-08-03T13:24:29.624Z,1.30
2022-08-03T13:26:57.048Z,1.30
2022-08-03T13:29:23.485Z,1.42
2022-08-03T13:31:50.592Z,1.42
2022-08-03T13:34:23.093Z,1.63
2022-08-03T13:37:08.354Z,1.20
2022-08-03T13:39:35.691Z,1.38
2022-08-03T13:42:22.044Z,1.73
2022-08-03T13:44:48.416Z,1.45
2022-08-03T13:47:14.840Z,1.33
2022-08-03T13:49:41.215Z,1.60
2022-08-03T13:52:07.757Z,1.38
2022-08-03T13:54:34.175Z,1.35
2022-08-03T13:57:00.798Z,1.10
2022-08-03T13:59:47.121Z,1.40
2022-08-03T14:02:13.527Z,1.50
2022-08-03T14:04:40.341Z,1.13
2022-08-03T14:07:06.786Z,1.42
2022-08-03T14:09:33.222Z,1.40
2022-08-03T14:12:07.204Z,1.50
2022-08-03T14:14:35.131Z,1.55
2022-08-03T14:17:01.492Z,1.40
2022-08-03T14:19:28.872Z,1.65
2022-08-03T14:22:06.151Z,1.33
2022-08-03T14:24:33.124Z,1.20
2022-08-03T14:27:07.118Z,1.38
2022-08-03T14:29:35.496Z,1.55
2022-08-03T14:32:11.399Z,1.85
2022-08-03T14:34:39.314Z,1.40
2022-08-03T14:37:05.843Z,1.30
2022-08-03T14:42:20.161Z,1.38
2022-08-03T14:44:46.665Z,1.35
2022-08-03T14:47:14.149Z,1.42
2022-08-03T14:50:35.017Z,1.48
2022-08-03T14:52:27.090Z,1.30
2022-08-03T14:54:53.556Z,1.40
2022-08-03T14:57:20.104Z,1.70
2022-08-03T14:59:56.453Z,2.08
2022-08-03T15:02:25.420Z,1.27
2022-08-03T15:04:52.601Z,1.40
2022-08-03T15:07:20.394Z,1.20
2022-08-03T15:09:47.209Z,1.20
2022-08-03T15:12:13.608Z,1.30
2022-08-03T15:14:40.088Z,1.65
2022-08-03T15:17:07.009Z,1.30
2022-08-03T15:20:03.516Z,1.30
2022-08-03T15:22:20.621Z,1.35
2022-08-03T15:24:51.246Z,1.30
2022-08-03T15:27:17.855Z,1.35
2022-08-03T15:30:08.786Z,1.38
2022-08-03T15:32:31.280Z,1.42
2022-08-03T15:34:57.671Z,1.30
2022-08-03T15:37:25.648Z,1.70
2022-08-03T15:39:58.438Z,1.50
2022-08-03T15:42:26.691Z,1.45
2022-08-03T15:44:53.818Z,1.67
2022-08-03T15:47:21.459Z,1.42
2022-08-03T15:49:48.020Z,1.40
2022-08-03T15:52:14.385Z,1.50
2022-08-03T15:54:40.767Z,1.50
2022-08-03T15:57:07.230Z,1.30
2022-08-03T15:59:33.701Z,1.45
2022-08-03T16:02:00.342Z,1.30
2022-08-03T16:04:26.907Z,1.25
2022-08-03T16:06:53.535Z,1.70
2022-08-03T16:09:23.046Z,1.35
2022-08-03T16:12:06.510Z,1.30
2022-08-03T16:14:51.735Z,1.58
2022-08-03T16:17:19.702Z,1.60
2022-08-03T16:19:46.341Z,1.38
2022-08-03T16:22:12.884Z,1.30
2022-08-03T16:24:40.802Z,1.40
2022-08-03T16:27:07.849Z,1.33
2022-08-03T16:29:44.551Z,1.27
2022-08-03T16:32:11.416Z,1.50
2022-08-03T16:34:39.181Z,2.00
2022-08-03T16:37:22.450Z,1.75
2022-08-03T16:39:53.654Z,1.40
2022-08-03T16:42:20.144Z,1.60
2022-08-03T16:44:47.191Z,1.45
2022-08-03T16:47:21.755Z,1.30
2022-08-03T16:49:55.864Z,1.30
2022-08-03T16:52:23.160Z,1.30
2022-08-03T16:54:53.135Z,1.33
2022-08-03T16:57:56.537Z,1.17
2022-08-03T17:00:10.096Z,1.40
2022-08-03T17:02:37.144Z,1.33
2022-08-03T17:05:04.346Z,1.60
2022-08-03T17:07:30.857Z,1.38
2022-08-03T17:09:57.627Z,1.73
2022-08-03T17:12:26.780Z,1.35
2022-08-03T17:14:54.037Z,1.70
2022-08-03T17:17:53.367Z,1.55
2022-08-03T17:20:21.486Z,1.50
2022-08-03T17:23:03.377Z,1.48
2022-08-03T17:26:02.612Z,1.40
2022-08-03T17:28:49.289Z,1.20
2022-08-03T17:31:31.142Z,1.38
2022-08-03T17:34:00.957Z,1.50
2022-08-03T17:36:47.637Z,1.17
2022-08-03T17:39:26.837Z,1.40
2022-08-03T17:42:05.184Z,1.50
2022-08-03T17:44:52.774Z,1.40
2022-08-03T17:47:19.281Z,1.83
2022-08-03T17:49:47.996Z,1.30
2022-08-03T17:52:48.194Z,1.30
2022-08-03T17:58:11.429Z,1.40
2022-08-03T18:00:59.686Z,1.40
2022-08-03T18:03:58.126Z,1.30
2022-08-03T18:06:28.710Z,1.23
2022-08-03T18:11:35.754Z,1.10
2022-08-03T18:14:21.061Z,1.20
2022-08-03T18:17:00.416Z,1.63
2022-08-03T18:20:01.279Z,1.38
2022-08-03T18:22:15.386Z,1.05
2022-08-03T18:24:43.574Z,1.35
2022-08-03T18:27:14.464Z,1.40
2022-08-03T18:29:43.220Z,1.30
2022-08-03T18:32:13.502Z,1.33
2022-08-03T18:34:53.853Z,1.20
2022-08-03T18:37:25.139Z,1.35
2022-08-03T18:39:55.602Z,1.80
2022-08-03T18:45:56.318Z,1.40
2022-08-03T18:48:13.418Z,1.60
2022-08-03T18:51:09.573Z,1.60
2022-08-03T18:54:02.129Z,1.80
2022-08-03T18:56:37.722Z,1.70
2022-08-03T18:59:05.137Z,1.43
2022-08-03T19:01:59.708Z,1.80
2022-08-03T19:04:45.976Z,1.60
2022-08-03T19:07:17.462Z,1.75
2022-08-03T19:09:57.312Z,1.55
2022-08-03T19:12:39.582Z,1.63
2022-08-03T19:15:10.540Z,1.83
2022-08-03T19:17:50.159Z,1.75
2022-08-03T19:20:21.560Z,1.70
2022-08-03T19:22:50.941Z,1.70
2022-08-03T19:25:18.335Z,1.70
2022-08-03T19:27:46.892Z,1.88
2022-08-03T19:30:38.847Z,1.60
2022-08-03T19:33:10.042Z,1.80
2022-08-03T19:35:54.956Z,2.22
2022-08-03T19:38:29.497Z,1.88
2022-08-03T19:40:59.548Z,1.85
2022-08-03T19:43:53.958Z,1.70
2022-08-03T19:46:21.787Z,1.70
2022-08-03T19:48:59.043Z,1.88
2022-08-03T19:52:01.864Z,1.67
2022-08-03T19:54:29.947Z,2.15
2022-08-03T19:57:00.318Z,1.95
2022-08-03T19:59:29.483Z,1.70
2022-08-03T20:01:55.858Z,1.65
2022-08-03T20:04:22.368Z,1.75
2022-08-03T20:06:49.834Z,2.10
2022-08-03T20:09:17.944Z,1.90
2022-08-03T20:11:45.184Z,2.05
2022-08-03T20:14:13.275Z,1.70
2022-08-03T20:16:51.469Z,1.70
2022-08-03T20:19:18.375Z,1.70
2022-08-03T20:21:48.399Z,2.20
2022-08-03T20:24:36.658Z,2.00
2022-08-03T20:27:10.557Z,1.85
2022-08-03T20:30:04.890Z,2.10
2022-08-03T20:32:27.661Z,1.83
2022-08-03T20:34:54.203Z,2.08
2022-08-03T20:37:21.993Z,1.80
2022-08-03T20:39:49.368Z,2.35
2022-08-03T20:42:21.787Z,2.20
2022-08-03T20:45:04.490Z,1.75
2022-08-03T20:47:35.765Z,2.25
2022-08-03T20:50:04.572Z,1.98
2022-08-03T20:52:34.915Z,1.98
2022-08-03T20:55:12.850Z,2.10
2022-08-03T20:57:42.344Z,2.30
2022-08-03T21:02:44.131Z,2.10
2022-08-03T21:05:10.771Z,2.92
2022-08-03T21:08:04.238Z,2.22
2022-08-03T21:10:32.188Z,2.55
2022-08-03T21:12:55.768Z,1.48
2022-08-03T21:12:58.870Z,1.52
2022-08-03T21:13:17.086Z,2.33
2022-08-03T21:16:13.225Z,2.42
2022-08-03T21:18:52.825Z,2.30
2022-08-03T21:21:22.189Z,2.20
2022-08-03T21:23:52.493Z,2.28
2022-08-03T21:26:21.463Z,2.55
2022-08-03T21:28:49.728Z,2.33
2022-08-03T21:31:24.478Z,2.65
2022-08-03T21:34:04.063Z,2.47
2022-08-03T21:36:34.205Z,2.95
2022-08-03T21:39:01.750Z,2.55
2022-08-03T21:41:30.819Z,2.53
2022-08-03T21:43:58.025Z,2.53
2022-08-03T21:46:26.603Z,2.13
2022-08-03T21:50:04.243Z,2.10
2022-08-03T21:51:49.801Z,2.10
2022-08-03T21:54:17.664Z,2.38
2022-08-03T21:56:47.644Z,2.38
2022-08-03T21:59:19.791Z,2.35
2022-08-03T22:01:48.755Z,2.33
2022-08-03T22:04:50.706Z,2.67
2022-08-03T22:07:07.757Z,2.78
2022-08-03T22:09:35.340Z,2.85
2022-08-03T22:12:01.834Z,2.70
2022-08-03T22:14:28.973Z,2.80
2022-08-03T22:16:56.202Z,2.83
2022-08-03T22:19:22.619Z,2.70
2022-08-03T22:21:49.680Z,2.45
2022-08-03T22:24:19.991Z,2.92
2022-08-03T22:27:09.893Z,2.25
2022-08-03T22:29:36.688Z,2.78
2022-08-03T22:32:03.444Z,2.47
2022-08-03T22:34:30.065Z,2.30
2022-08-03T22:37:01.845Z,2.60
2022-08-03T22:39:29.451Z,2.28
2022-08-03T22:41:59.264Z,2.55
2022-08-03T22:44:27.613Z,2.55
2022-08-03T22:46:55.266Z,2.70
2022-08-03T22:49:22.309Z,2.85
2022-08-03T22:51:51.425Z,3.17
2022-08-03T22:54:17.935Z,3.08
2022-08-03T22:56:46.612Z,2.80
2022-08-03T22:59:40.599Z,3.60
2022-08-03T23:02:20.448Z,3.38
2022-08-03T23:04:51.552Z,4.13
2022-08-03T23:07:27.259Z,3.08
2022-08-03T23:09:56.285Z,2.88
2022-08-03T23:12:23.616Z,2.72
2022-08-03T23:14:55.433Z,2.45
2022-08-03T23:17:23.549Z,3.17
2022-08-03T23:19:52.512Z,2.83
2022-08-03T23:22:29.715Z,2.72
2022-08-03T23:24:58.926Z,2.83
2022-08-03T23:27:27.093Z,3.03
2022-08-03T23:29:53.755Z,3.03
2022-08-03T23:32:20.886Z,2.70
2022-08-03T23:35:07.053Z,2.40
2022-08-03T23:37:34.669Z,3.03
2022-08-03T23:40:24.493Z,2.80
2022-08-03T23:42:51.438Z,2.50
2022-08-03T23:45:19.720Z,3.17
2022-08-03T23:47:47.758Z,2.53
2022-08-03T23:50:14.588Z,2.63
2022-08-03T23:52:57.481Z,2.50
2022-08-03T23:55:32.995Z,2.63
2022-08-03T23:58:19.776Z,2.47
